Time;durP1;ratioP1;P1;durP2;ratioP2;P2;SDS_P1;SDS_P2;PMS_P1;PMS_P2;Temp;Humidity;BMP_temperature;BMP_pressure;BME280_temperature;BME280_humidity;BME280_pressure;Samples;Min_cycle;Max_cycle;Signal;HPM_P1;HPM_P2
2023/08/01 00:01:31;;;;;;;11.25;5.70;;;17.80;99.90;;;;;;5012974;28;20036;-45
2023/08/01 00:03:56;;;;;;;10.25;5.70;;;17.80;99.90;;;;;;5012852;28;20113;-46
2023/08/01 00:06:24;;;;;;;13.02;5.47;;;17.70;99.90;;;;;;5012703;28;20551;-46
2023/08/01 00:08:49;;;;;;;9.27;5.97;;;17.60;99.90;;;;;;5012737;28;20109;-51
2023/08/01 00:11:16;;;;;;;11.32;6.88;;;17.60;99.90;;;;;;5012619;28;20025;-43
2023/08/01 00:13:43;;;;;;;10.25;6.13;;;17.60;99.90;;;;;;5012443;28;20032;-44
2023/08/01 00:16:08;;;;;;;14.90;6.22;;;17.60;99.90;;;;;;4994636;28;20022;-45
2023/08/01 00:18:34;;;;;;;11.45;7.25;;;17.60;99.90;;;;;;5012090;28;20084;-49
2023/08/01 00:21:00;;;;;;;14.20;6.68;;;17.60;99.90;;;;;;5012252;28;20022;-51
2023/08/01 00:23:25;;;;;;;11.30;5.97;;;17.60;99.90;;;;;;5012332;28;20404;-47
2023/08/01 00:25:51;;;;;;;11.18;7.03;;;17.60;99.90;;;;;;5012308;28;20058;-48
2023/08/01 00:28:18;;;;;;;10.13;5.72;;;17.60;99.90;;;;;;5012117;28;20690;-44
2023/08/01 00:30:43;;;;;;;9.73;6.05;;;17.70;99.90;;;;;;5012154;28;20037;-44
2023/08/01 00:33:09;;;;;;;9.90;6.10;;;17.60;99.90;;;;;;5033451;23;20042;-53
2023/08/01 00:35:35;;;;;;;9.52;5.63;;;17.70;99.90;;;;;;5012564;28;20401;-50
2023/08/01 00:38:00;;;;;;;18.52;8.48;;;17.70;99.90;;;;;;5013135;28;20025;-54
2023/08/01 00:40:33;;;;;;;17.85;8.30;;;17.60;99.90;;;;;;5013396;28;20517;-52
2023/08/01 00:42:58;;;;;;;11.85;5.05;;;17.70;99.90;;;;;;5013537;28;20037;-50
2023/08/01 00:45:25;;;;;;;12.32;6.00;;;17.60;99.90;;;;;;5013768;28;20101;-50
2023/08/01 00:47:51;;;;;;;10.60;5.72;;;17.60;99.90;;;;;;5012877;28;20030;-50
2023/08/01 00:50:22;;;;;;;8.27;5.10;;;17.60;99.90;;;;;;5012147;28;20041;-52
2023/08/01 00:52:48;;;;;;;11.43;5.22;;;17.60;99.90;;;;;;5013102;28;20504;-51
2023/08/01 00:55:15;;;;;;;12.20;5.68;;;17.60;99.90;;;;;;5013527;28;20548;-51
2023/08/01 00:57:41;;;;;;;12.68;5.28;;;17.60;99.90;;;;;;5013039;28;20481;-49
2023/08/01 01:00:07;;;;;;;7.45;4.93;;;17.60;99.90;;;;;;4994976;28;20032;-50
2023/08/01 01:02:33;;;;;;;10.43;5.20;;;17.60;99.90;;;;;;5012749;28;20033;-49
2023/08/01 01:04:59;;;;;;;11.27;5.57;;;17.60;99.90;;;;;;5012809;28;20034;-48
2023/08/01 01:07:26;;;;;;;12.13;5.45;;;17.50;99.90;;;;;;4994650;28;20452;-48
2023/08/01 01:09:51;;;;;;;9.40;5.22;;;17.50;99.90;;;;;;5012562;28;20026;-48
2023/08/01 01:12:17;;;;;;;14.80;5.25;;;17.50;99.90;;;;;;5013200;28;20620;-48
2023/08/01 01:14:42;;;;;;;10.75;5.70;;;17.50;99.90;;;;;;5013243;28;20096;-48
2023/08/01 01:17:08;;;;;;;13.60;5.50;;;17.50;99.90;;;;;;4994923;28;20026;-53
2023/08/01 01:19:33;;;;;;;7.85;4.88;;;17.40;99.90;;;;;;5012113;28;20371;-49
2023/08/01 01:21:59;;;;;;;13.20;7.50;;;17.40;99.90;;;;;;5012688;28;20072;-49
2023/08/01 01:24:26;;;;;;;11.00;6.30;;;17.40;99.90;;;;;;4995399;28;20033;-53
2023/08/01 01:26:54;;;;;;;11.40;6.43;;;17.50;99.90;;;;;;5012726;28;20028;-51
2023/08/01 01:29:20;;;;;;;16.67;6.60;;;17.50;99.90;;;;;;5012850;28;20026;-49
2023/08/01 01:31:48;;;;;;;11.07;6.20;;;17.50;99.90;;;;;;5012834;28;20052;-51
2023/08/01 01:34:13;;;;;;;14.70;6.93;;;17.50;99.90;;;;;;5015857;28;20025;-50
2023/08/01 01:36:39;;;;;;;12.10;7.18;;;17.50;99.90;;;;;;5016777;28;20392;-49
2023/08/01 01:39:05;;;;;;;14.27;7.72;;;17.50;99.90;;;;;;5016199;28;20034;-51
2023/08/01 01:41:30;;;;;;;13.45;6.70;;;17.50;99.90;;;;;;5016365;28;20029;-51
2023/08/01 01:43:56;;;;;;;10.57;5.85;;;17.50;99.90;;;;;;5016766;28;20068;-50
2023/08/01 01:46:21;;;;;;;11.90;6.00;;;17.50;99.90;;;;;;5016553;28;20053;-50
2023/08/01 01:48:47;;;;;;;14.50;6.45;;;17.50;99.90;;;;;;5016192;28;20040;-49
2023/08/01 01:51:13;;;;;;;15.73;6.45;;;17.50;99.90;;;;;;4998537;28;20034;-50
2023/08/01 01:53:38;;;;;;;9.15;5.38;;;17.50;99.90;;;;;;5016113;28;20033;-50
2023/08/01 01:56:04;;;;;;;8.98;5.53;;;17.50;99.90;;;;;;4998922;28;20017;-51
2023/08/01 01:58:30;;;;;;;9.40;5.90;;;17.50;99.90;;;;;;5015870;28;20030;-48
2023/08/01 02:00:55;;;;;;;7.18;5.30;;;17.50;99.90;;;;;;5016267;28;20034;-52
2023/08/01 02:03:21;;;;;;;11.38;5.40;;;17.50;99.90;;;;;;5016175;28;20463;-50
2023/08/01 02:05:46;;;;;;;10.18;5.68;;;17.50;99.90;;;;;;5015959;28;20034;-50
2023/08/01 02:08:12;;;;;;;15.00;6.10;;;17.50;99.90;;;;;;5015512;28;20017;-52
2023/08/01 02:10:37;;;;;;;10.25;5.57;;;17.50;99.90;;;;;;5016040;28;20037;-52
2023/08/01 02:13:03;;;;;;;9.90;5.03;;;17.50;99.90;;;;;;5015329;28;20370;-50
2023/08/01 02:15:28;;;;;;;13.98;6.75;;;17.60;99.90;;;;;;5016067;28;20037;-50
2023/08/01 02:17:54;;;;;;;9.85;5.95;;;17.60;99.90;;;;;;5015758;28;20505;-46
2023/08/01 02:20:20;;;;;;;13.68;5.72;;;17.60;99.90;;;;;;5015598;28;20049;-51
2023/08/01 02:22:45;;;;;;;10.43;6.43;;;17.60;99.90;;;;;;5015723;28;20028;-49
2023/08/01 02:25:11;;;;;;;11.35;5.68;;;17.60;99.90;;;;;;5015420;28;20034;-48
2023/08/01 02:27:36;;;;;;;8.85;5.38;;;17.50;99.90;;;;;;5015224;28;20037;-50
2023/08/01 02:30:02;;;;;;;6.65;4.80;;;17.50;99.90;;;;;;5014754;28;20125;-50
2023/08/01 02:32:28;;;;;;;10.77;5.95;;;17.50;99.90;;;;;;5015361;28;20026;-50
2023/08/01 02:34:53;;;;;;;12.50;5.93;;;17.60;99.90;;;;;;5015937;28;20026;-49
2023/08/01 02:37:19;;;;;;;15.00;6.85;;;17.60;99.90;;;;;;5015530;28;20034;-52
2023/08/01 02:39:45;;;;;;;9.05;5.00;;;17.50;99.90;;;;;;5015486;28;20108;-52
2023/08/01 02:42:10;;;;;;;10.38;5.47;;;17.50;99.90;;;;;;4997789;28;20041;-50
2023/08/01 02:44:35;;;;;;;8.85;5.38;;;17.50;99.90;;;;;;5015446;28;20030;-50
2023/08/01 02:47:01;;;;;;;14.82;5.65;;;17.50;99.90;;;;;;5014831;28;20026;-49
2023/08/01 02:49:27;;;;;;;9.43;4.88;;;17.60;99.90;;;;;;4997515;28;20121;-53
2023/08/01 02:51:52;;;;;;;9.07;4.65;;;17.60;99.90;;;;;;5015418;28;20034;-50
2023/08/01 02:54:17;;;;;;;9.48;4.70;;;17.60;99.90;;;;;;5015130;28;20034;-51
2023/08/01 02:56:43;;;;;;;7.00;4.68;;;17.60;99.90;;;;;;5015160;28;20026;-50
2023/08/01 02:59:09;;;;;;;7.05;4.35;;;17.60;99.90;;;;;;5014623;28;20014;-49
2023/08/01 03:01:35;;;;;;;5.25;4.28;;;17.70;99.90;;;;;;5015194;28;20033;-49
2023/08/01 03:04:05;;;;;;;8.35;4.60;;;17.60;99.90;;;;;;5014825;28;20034;-51
2023/08/01 03:06:31;;;;;;;10.10;4.88;;;17.70;99.90;;;;;;5015292;28;20100;-50
2023/08/01 03:08:57;;;;;;;9.68;4.55;;;17.70;99.90;;;;;;5014551;28;20034;-50
2023/08/01 03:11:22;;;;;;;6.50;4.72;;;17.70;99.90;;;;;;5015339;28;20033;-51
2023/08/01 03:13:48;;;;;;;9.48;4.78;;;17.70;99.90;;;;;;4996938;28;20064;-52
2023/08/01 03:16:13;;;;;;;5.88;3.92;;;17.70;99.90;;;;;;5015031;28;20512;-51
2023/08/01 03:18:39;;;;;;;8.32;4.65;;;17.70;99.90;;;;;;4996556;28;20036;-51
2023/08/01 03:21:04;;;;;;;6.80;3.78;;;17.70;99.90;;;;;;5014343;28;20029;-54
2023/08/01 03:23:30;;;;;;;6.65;3.90;;;17.70;99.90;;;;;;5014398;28;20579;-50
2023/08/01 03:25:56;;;;;;;4.78;4.00;;;17.70;99.90;;;;;;5014581;28;20498;-50
2023/08/01 03:28:21;;;;;;;7.05;4.20;;;17.70;99.90;;;;;;5014302;28;20025;-49
2023/08/01 03:30:49;;;;;;;6.88;4.03;;;17.70;99.90;;;;;;4996856;28;20568;-52
2023/08/01 03:33:15;;;;;;;9.52;4.13;;;17.70;99.90;;;;;;5014449;28;20497;-51
2023/08/01 03:35:41;;;;;;;6.93;4.55;;;17.70;99.90;;;;;;5014520;28;20033;-54
2023/08/01 03:38:07;;;;;;;7.70;4.75;;;17.70;99.90;;;;;;5014038;28;20018;-49
2023/08/01 03:40:32;;;;;;;6.38;4.22;;;17.70;99.90;;;;;;5014304;28;20030;-51
2023/08/01 03:42:58;;;;;;;9.38;3.88;;;17.80;99.90;;;;;;5014167;28;20054;-49
2023/08/01 03:45:24;;;;;;;10.38;4.57;;;17.80;99.90;;;;;;5014551;28;20064;-47
2023/08/01 03:47:49;;;;;;;8.27;4.20;;;17.80;99.90;;;;;;5014657;28;20022;-49
2023/08/01 03:50:15;;;;;;;5.15;4.35;;;17.70;99.90;;;;;;4995591;28;20448;-50
2023/08/01 03:52:41;;;;;;;11.45;4.50;;;17.70;99.90;;;;;;4996499;28;20524;-49
2023/08/01 03:55:06;;;;;;;9.55;4.43;;;17.70;99.90;;;;;;5013853;28;20508;-51
2023/08/01 03:57:33;;;;;;;8.45;4.30;;;17.70;99.90;;;;;;5014634;28;20048;-48
2023/08/01 03:59:59;;;;;;;11.18;4.95;;;17.70;99.90;;;;;;5014613;28;20028;-49
2023/08/01 04:02:25;;;;;;;11.60;4.53;;;17.70;99.90;;;;;;5015128;28;20480;-48
2023/08/01 04:04:51;;;;;;;7.97;4.40;;;17.70;99.90;;;;;;4996718;28;20507;-48
2023/08/01 04:07:16;;;;;;;10.48;4.80;;;17.70;99.90;;;;;;5014505;28;20042;-48
2023/08/01 04:09:42;;;;;;;9.15;4.22;;;17.70;99.90;;;;;;5014301;28;20118;-52
2023/08/01 04:12:08;;;;;;;10.20;4.25;;;17.70;99.90;;;;;;5013661;28;20030;-48
2023/08/01 04:14:34;;;;;;;7.50;3.97;;;17.70;99.90;;;;;;4996204;28;20519;-49
2023/08/01 04:17:00;;;;;;;10.88;4.22;;;17.80;99.90;;;;;;5012998;28;20053;-49
2023/08/01 04:19:25;;;;;;;7.45;3.92;;;17.70;99.90;;;;;;5013347;28;20048;-50
2023/08/01 04:21:51;;;;;;;10.00;4.55;;;17.70;99.90;;;;;;5013173;28;20436;-50
2023/08/01 04:24:16;;;;;;;7.43;3.90;;;17.70;99.90;;;;;;5013094;28;20601;-53
2023/08/01 04:26:42;;;;;;;6.45;4.43;;;17.70;99.90;;;;;;5012818;28;20053;-50
2023/08/01 04:29:07;;;;;;;8.70;4.25;;;17.70;99.90;;;;;;5013226;28;20390;-49
2023/08/01 04:31:33;;;;;;;8.00;3.97;;;17.70;99.90;;;;;;5012840;28;20493;-50
2023/08/01 04:33:59;;;;;;;7.50;4.40;;;17.70;99.90;;;;;;5012931;28;20497;-50
2023/08/01 04:36:24;;;;;;;5.97;4.05;;;17.70;99.90;;;;;;5012738;28;20026;-51
2023/08/01 04:38:50;;;;;;;8.90;4.65;;;17.70;99.90;;;;;;4994993;28;20018;-52
2023/08/01 04:41:15;;;;;;;10.00;4.60;;;17.70;99.90;;;;;;5012605;28;20113;-53
2023/08/01 04:43:41;;;;;;;10.60;4.32;;;17.70;99.90;;;;;;5012937;28;20084;-52
2023/08/01 04:46:06;;;;;;;10.02;5.82;;;17.60;99.90;;;;;;4994942;28;20022;-49
2023/08/01 04:48:32;;;;;;;5.95;4.35;;;17.60;99.90;;;;;;5012510;28;20022;-50
2023/08/01 04:50:57;;;;;;;6.80;4.38;;;17.70;99.90;;;;;;4994732;28;20053;-52
2023/08/01 04:53:23;;;;;;;9.98;4.38;;;17.60;99.90;;;;;;5012889;28;20025;-50
2023/08/01 04:55:48;;;;;;;5.55;3.78;;;17.60;99.90;;;;;;4995117;28;20053;-50
2023/08/01 04:58:14;;;;;;;9.90;4.70;;;17.60;99.90;;;;;;5012463;28;20037;-52
2023/08/01 05:00:41;;;;;;;6.65;4.07;;;17.50;99.90;;;;;;5013025;28;20022;-50
2023/08/01 05:03:06;;;;;;;5.90;3.92;;;17.50;99.90;;;;;;4995573;28;20060;-50
2023/08/01 05:05:32;;;;;;;6.80;3.90;;;17.50;99.90;;;;;;4995255;28;20485;-52
2023/08/01 05:07:57;;;;;;;6.72;3.92;;;17.50;99.90;;;;;;5012292;28;20034;-49
2023/08/01 05:10:23;;;;;;;5.10;3.88;;;17.50;99.90;;;;;;5013566;28;20089;-53
2023/08/01 05:12:48;;;;;;;6.97;3.63;;;17.40;99.90;;;;;;5013292;28;20444;-53
2023/08/01 05:15:14;;;;;;;3.95;3.10;;;17.40;99.90;;;;;;4996330;28;20079;-52
2023/08/01 05:17:40;;;;;;;8.95;3.80;;;17.40;99.90;;;;;;5013908;28;20026;-53
2023/08/01 05:20:06;;;;;;;6.68;3.47;;;17.30;99.90;;;;;;5014057;28;20030;-50
2023/08/01 05:22:31;;;;;;;7.57;4.00;;;17.40;99.90;;;;;;5014167;28;20097;-52
2023/08/01 05:24:57;;;;;;;4.30;3.17;;;17.40;99.90;;;;;;5014097;28;20057;-53
2023/08/01 05:27:22;;;;;;;5.82;4.03;;;17.50;99.90;;;;;;5013115;28;20109;-50
2023/08/01 05:29:48;;;;;;;5.43;3.55;;;17.50;99.90;;;;;;5013505;28;20394;-49
2023/08/01 05:32:13;;;;;;;4.50;3.28;;;17.40;99.90;;;;;;5014278;28;20028;-51
2023/08/01 05:34:39;;;;;;;5.10;3.83;;;17.40;99.90;;;;;;5014141;28;20084;-48
2023/08/01 05:37:05;;;;;;;6.20;3.30;;;17.50;99.90;;;;;;5014498;28;20105;-51
2023/08/01 05:39:30;;;;;;;4.80;3.38;;;17.40;99.90;;;;;;5014567;28;20547;-53
2023/08/01 05:41:56;;;;;;;5.28;3.83;;;17.40;99.90;;;;;;5013940;28;20022;-55
2023/08/01 05:44:21;;;;;;;5.35;3.88;;;17.40;99.90;;;;;;4996211;28;20032;-47
2023/08/01 05:46:47;;;;;;;4.40;3.65;;;17.40;99.90;;;;;;5014104;28;20036;-49
2023/08/01 05:49:12;;;;;;;3.80;3.30;;;17.40;99.90;;;;;;5014537;28;20018;-49
2023/08/01 05:51:38;;;;;;;7.72;3.78;;;17.40;99.90;;;;;;5013857;28;20033;-52
2023/08/01 05:54:03;;;;;;;5.85;4.22;;;17.30;99.90;;;;;;5013899;28;20026;-50
2023/08/01 05:56:29;;;;;;;5.65;5.03;;;17.30;99.90;;;;;;4997016;28;20044;-50
2023/08/01 05:58:55;;;;;;;5.75;4.07;;;17.30;99.90;;;;;;5013610;28;20202;-51
2023/08/01 06:01:20;;;;;;;6.72;4.32;;;17.20;99.90;;;;;;5012988;28;20073;-54
2023/08/01 06:03:46;;;;;;;5.30;3.83;;;17.20;99.90;;;;;;5013574;28;20405;-50
2023/08/01 06:06:11;;;;;;;5.72;4.68;;;17.20;99.90;;;;;;4996261;28;20149;-48
2023/08/01 06:08:37;;;;;;;8.23;4.72;;;17.10;99.90;;;;;;5014071;28;20045;-52
2023/08/01 06:11:03;;;;;;;7.22;4.68;;;17.10;99.90;;;;;;5013842;28;20026;-54
2023/08/01 06:13:28;;;;;;;4.68;4.10;;;17.10;99.90;;;;;;5014148;28;20014;-52
2023/08/01 06:15:54;;;;;;;6.35;5.43;;;17.10;99.90;;;;;;4996189;28;20486;-53
2023/08/01 06:18:19;;;;;;;6.53;4.55;;;17.10;99.90;;;;;;4995336;28;20022;-50
2023/08/01 06:20:45;;;;;;;6.90;4.93;;;17.20;99.90;;;;;;4999385;28;20374;-52
2023/08/01 06:23:10;;;;;;;5.45;4.75;;;17.10;99.90;;;;;;4999028;28;20049;-52
2023/08/01 06:25:36;;;;;;;6.00;4.47;;;17.10;99.90;;;;;;4996431;28;20120;-50
2023/08/01 06:28:01;;;;;;;8.25;5.20;;;17.10;99.90;;;;;;5004284;28;20034;-51
2023/08/01 06:30:27;;;;;;;8.20;4.18;;;17.10;99.90;;;;;;4987725;28;20401;-50
2023/08/01 06:32:52;;;;;;;5.85;3.90;;;17.10;99.90;;;;;;4997694;28;20441;-51
2023/08/01 06:35:18;;;;;;;5.53;4.00;;;17.20;99.90;;;;;;4997624;28;20029;-48
2023/08/01 06:37:43;;;;;;;5.30;4.13;;;17.20;99.90;;;;;;5003105;28;20046;-52
2023/08/01 06:40:10;;;;;;;4.93;3.67;;;17.20;99.90;;;;;;4987668;28;20128;-49
2023/08/01 06:42:35;;;;;;;5.65;3.67;;;17.20;99.90;;;;;;5005489;28;20072;-52
2023/08/01 06:45:01;;;;;;;4.65;3.35;;;17.30;99.90;;;;;;4997089;28;20045;-53
2023/08/01 06:47:26;;;;;;;5.50;3.90;;;17.30;99.90;;;;;;5014777;28;20441;-49
2023/08/01 06:49:52;;;;;;;4.03;3.20;;;17.30;99.90;;;;;;4996850;28;20025;-53
2023/08/01 06:52:17;;;;;;;6.30;3.42;;;17.30;99.90;;;;;;4997400;28;20445;-49
2023/08/01 06:54:43;;;;;;;6.22;3.13;;;17.30;99.90;;;;;;4996993;28;20033;-48
2023/08/01 06:57:08;;;;;;;4.72;2.97;;;17.20;99.90;;;;;;5014463;28;20026;-50
2023/08/01 06:59:34;;;;;;;3.40;2.35;;;17.20;99.90;;;;;;5014633;28;20014;-52
2023/08/01 07:02:00;;;;;;;3.13;2.10;;;17.20;99.90;;;;;;5014862;28;20037;-53
2023/08/01 07:04:26;;;;;;;4.82;2.15;;;17.20;99.90;;;;;;4982169;28;20379;-52
2023/08/01 07:06:51;;;;;;;1.30;1.10;;;17.20;99.90;;;;;;4992395;28;20041;-53
2023/08/01 07:09:17;;;;;;;3.95;1.35;;;17.20;99.90;;;;;;4995739;28;20042;-52
2023/08/01 07:11:42;;;;;;;0.80;0.80;;;17.20;99.90;;;;;;5007037;28;20109;-55
2023/08/01 07:14:08;;;;;;;3.10;1.08;;;17.20;99.90;;;;;;4994064;28;20482;-53
2023/08/01 07:16:33;;;;;;;0.95;0.73;;;17.30;99.90;;;;;;4994268;28;20066;-49
2023/08/01 07:19:00;;;;;;;0.85;0.80;;;17.30;99.90;;;;;;4976548;28;20027;-54
2023/08/01 07:21:26;;;;;;;0.75;0.52;;;17.30;99.90;;;;;;4979064;28;20402;-54
2023/08/01 07:23:51;;;;;;;0.75;0.75;;;17.30;99.90;;;;;;5012525;28;20121;-54
2023/08/01 07:26:17;;;;;;;0.88;0.50;;;17.40;99.90;;;;;;5013350;28;20554;-55
2023/08/01 07:28:42;;;;;;;0.50;0.50;;;17.40;99.90;;;;;;5028237;28;20034;-53
2023/08/01 07:31:08;;;;;;;0.60;0.60;;;17.50;99.90;;;;;;4994786;28;20058;-52
2023/08/01 07:33:34;;;;;;;3.60;0.60;;;17.50;99.90;;;;;;5013350;28;20061;-54
2023/08/01 07:36:00;;;;;;;1.10;0.63;;;17.50;99.90;;;;;;5013040;28;20022;-56
2023/08/01 07:38:28;;;;;;;0.50;0.50;;;17.50;99.90;;;;;;5012866;28;20030;-53
2023/08/01 07:40:55;;;;;;;1.52;0.95;;;17.50;99.90;;;;;;5011001;28;20061;-55
2023/08/01 07:43:20;;;;;;;0.77;0.77;;;17.50;99.90;;;;;;5012273;28;20030;-51
2023/08/01 07:45:46;;;;;;;0.73;0.70;;;17.60;99.90;;;;;;5012335;28;20038;-51
2023/08/01 07:48:12;;;;;;;1.00;0.60;;;17.70;99.90;;;;;;5012615;28;20441;-50
2023/08/01 07:50:37;;;;;;;3.05;0.63;;;17.70;99.90;;;;;;5011694;28;20037;-55
2023/08/01 07:53:03;;;;;;;0.98;0.55;;;17.70;99.90;;;;;;5012468;28;20026;-51
2023/08/01 07:55:28;;;;;;;0.60;0.60;;;17.90;99.90;;;;;;4993354;28;20481;-52
2023/08/01 07:57:54;;;;;;;0.88;0.60;;;18.10;99.90;;;;;;5011027;28;20041;-51
2023/08/01 08:00:19;;;;;;;1.50;0.73;;;18.50;99.90;;;;;;5011963;28;20026;-54
2023/08/01 08:02:46;;;;;;;0.75;0.70;;;19.30;99.90;;;;;;5012328;28;20034;-50
2023/08/01 08:05:12;;;;;;;2.08;0.77;;;20.50;99.90;;;;;;4994885;28;20048;-49
2023/08/01 08:07:38;;;;;;;0.52;0.50;;;21.80;99.90;;;;;;5009878;28;20324;-49
2023/08/01 08:10:05;;;;;;;0.65;0.55;;;23.00;99.90;;;;;;4976102;28;20039;-56
2023/08/01 08:12:31;;;;;;;1.15;0.57;;;24.20;99.90;;;;;;5002995;28;20401;-56
2023/08/01 08:14:56;;;;;;;0.65;0.43;;;24.90;99.90;;;;;;5017698;28;20029;-54
2023/08/01 08:17:22;;;;;;;0.70;0.40;;;25.70;99.90;;;;;;4993738;28;20121;-50
2023/08/01 08:19:47;;;;;;;0.40;0.40;;;26.30;99.90;;;;;;4994549;28;20030;-51
2023/08/01 08:22:13;;;;;;;0.52;0.30;;;26.90;99.90;;;;;;4994172;28;20030;-51
2023/08/01 08:24:38;;;;;;;0.88;0.40;;;28.00;99.90;;;;;;4994445;28;20069;-56
2023/08/01 08:27:04;;;;;;;0.75;0.30;;;28.70;99.90;;;;;;5011622;28;20030;-53
2023/08/01 08:29:31;;;;;;;7.55;0.73;;;29.30;99.90;;;;;;5011093;28;20033;-54
2023/08/01 08:31:56;;;;;;;2.75;0.30;;;29.50;99.90;;;;;;5011666;28;20481;-54
2023/08/01 08:34:22;;;;;;;0.43;0.38;;;28.90;99.90;;;;;;5009962;28;20109;-51
2023/08/01 08:36:49;;;;;;;0.55;0.55;;;28.00;99.90;;;;;;5010655;28;20041;-54
2023/08/01 08:39:16;;;;;;;0.47;0.40;;;28.20;99.90;;;;;;5010890;28;20025;-56
2023/08/01 08:41:49;;;;;;;1.20;0.43;;;28.30;99.90;;;;;;5011794;28;20037;-51
2023/08/01 08:44:16;;;;;;;0.37;0.27;;;28.60;99.90;;;;;;5012043;28;20061;-56
2023/08/01 08:46:43;;;;;;;0.55;0.30;;;28.60;99.90;;;;;;5011781;28;20029;-54
2023/08/01 08:49:09;;;;;;;0.93;0.52;;;28.20;99.90;;;;;;5011492;28;20401;-49
2023/08/01 08:51:37;;;;;;;2.03;0.40;;;27.10;99.90;;;;;;4994294;28;20033;-54
2023/08/01 08:54:04;;;;;;;0.77;0.68;;;26.70;99.90;;;;;;5011957;28;20022;-54
2023/08/01 08:56:30;;;;;;;0.45;0.28;;;25.80;99.90;;;;;;4994017;28;20093;-55
2023/08/01 08:58:56;;;;;;;0.40;0.40;;;25.60;99.90;;;;;;5011391;28;20098;-57
2023/08/01 09:01:22;;;;;;;0.40;0.40;;;25.60;99.90;;;;;;5011726;28;20100;-52
2023/08/01 09:03:47;;;;;;;0.43;0.43;;;25.40;99.90;;;;;;4994096;28;20033;-50
2023/08/01 09:06:27;;;;;;;0.52;0.52;;;24.90;99.90;;;;;;5007806;28;20029;-54
2023/08/01 09:09:04;;;;;;;0.38;0.30;;;24.40;99.90;;;;;;5011068;28;20030;-50
2023/08/01 09:11:45;;;;;;;0.50;0.38;;;23.90;99.90;;;;;;5011770;28;20108;-52
2023/08/01 09:14:10;;;;;;;0.82;0.50;;;23.80;99.90;;;;;;5011773;28;20030;-55
2023/08/01 09:16:36;;;;;;;2.30;0.90;;;23.90;99.90;;;;;;5012238;28;20022;-55
2023/08/01 09:19:02;;;;;;;1.20;0.90;;;24.20;99.90;;;;;;4995767;28;20026;-55
2023/08/01 09:21:35;;;;;;;0.75;0.75;;;24.20;99.90;;;;;;5011144;28;20502;-54
2023/08/01 09:24:15;;;;;;;0.80;0.75;;;24.00;99.90;;;;;;5013725;28;20080;-52
2023/08/01 09:26:41;;;;;;;2.75;0.80;;;24.20;99.90;;;;;;4976806;28;20031;-54
2023/08/01 09:29:07;;;;;;;1.10;0.82;;;23.70;99.90;;;;;;5001469;28;20471;-53
2023/08/01 09:31:36;;;;;;;1.42;0.80;;;23.60;99.90;;;;;;5014165;28;20026;-56
2023/08/01 09:34:06;;;;;;;0.73;0.73;;;23.30;99.90;;;;;;5016048;28;20524;-55
2023/08/01 09:36:32;;;;;;;1.70;0.95;;;22.90;99.90;;;;;;5011947;28;20049;-52
2023/08/01 09:39:02;;;;;;;1.85;0.70;;;22.50;99.90;;;;;;4993270;28;20489;-49
2023/08/01 09:41:29;;;;;;;2.72;1.00;;;22.50;99.90;;;;;;5010787;28;20029;-52
2023/08/01 09:43:55;;;;;;;1.23;0.80;;;22.30;99.90;;;;;;5011320;28;20030;-47
2023/08/01 09:46:21;;;;;;;0.80;0.80;;;22.20;99.90;;;;;;5010989;28;20044;-47
2023/08/01 09:48:46;;;;;;;0.98;0.70;;;22.20;99.90;;;;;;5011214;28;20030;-49
2023/08/01 09:51:13;;;;;;;0.63;0.63;;;22.60;99.90;;;;;;5011497;28;20030;-49
2023/08/01 09:53:54;;;;;;;6.55;1.23;;;22.70;99.90;;;;;;5011889;28;20029;-49
2023/08/01 09:56:22;;;;;;;1.00;0.70;;;22.90;99.90;;;;;;4997268;28;20034;-54
2023/08/01 09:58:49;;;;;;;2.83;1.00;;;23.00;99.90;;;;;;5014613;28;20061;-56
2023/08/01 10:01:16;;;;;;;1.38;1.10;;;22.80;99.90;;;;;;5013810;28;20401;-51
2023/08/01 10:03:47;;;;;;;1.42;1.00;;;22.70;99.90;;;;;;5014100;28;20044;-48
2023/08/01 10:06:19;;;;;;;2.78;2.42;;;22.40;99.90;;;;;;5014470;28;20523;-49
2023/08/01 10:08:45;;;;;;;0.90;0.90;;;22.20;99.90;;;;;;5014110;28;20022;-53
2023/08/01 10:11:14;;;;;;;3.95;2.00;;;22.40;99.90;;;;;;5014251;28;20029;-50
2023/08/01 10:13:41;;;;;;;1.13;1.02;;;22.60;99.90;;;;;;5014402;28;20026;-51
2023/08/01 10:16:07;;;;;;;3.45;0.90;;;22.90;99.90;;;;;;5013971;28;20046;-55
2023/08/01 10:18:34;;;;;;;1.38;1.17;;;23.00;99.90;;;;;;5014354;28;20076;-50
2023/08/01 10:21:01;;;;;;;1.05;0.98;;;22.90;99.90;;;;;;4996912;28;20032;-51
2023/08/01 10:23:27;;;;;;;1.45;1.02;;;22.50;99.90;;;;;;5014580;28;20068;-51
2023/08/01 10:25:53;;;;;;;2.35;1.00;;;22.40;99.90;;;;;;5013224;28;20080;-52
2023/08/01 10:28:18;;;;;;;1.25;1.10;;;22.50;99.90;;;;;;5013179;28;20026;-47
2023/08/01 10:30:44;;;;;;;3.25;1.30;;;22.50;99.90;;;;;;5012434;28;20030;-49
2023/08/01 10:33:12;;;;;;;1.95;0.98;;;22.30;99.90;;;;;;5013652;28;20041;-49
2023/08/01 10:35:39;;;;;;;1.85;1.55;;;22.20;99.90;;;;;;5003753;28;20018;-48
2023/08/01 10:38:11;;;;;;;1.48;1.38;;;22.00;99.90;;;;;;4996470;28;20049;-56
2023/08/01 10:40:42;;;;;;;1.35;1.25;;;22.00;99.90;;;;;;4998369;28;20143;-49
2023/08/01 10:43:28;;;;;;;1.58;1.48;;;21.80;99.90;;;;;;5030922;28;20395;-54
2023/08/01 10:46:03;;;;;;;1.63;1.08;;;21.70;99.90;;;;;;5012488;28;20038;-53
2023/08/01 10:48:29;;;;;;;1.80;1.15;;;21.80;99.90;;;;;;5012881;28;20436;-55
2023/08/01 10:50:57;;;;;;;4.00;1.27;;;22.00;99.90;;;;;;5013890;28;20033;-53
2023/08/01 10:53:23;;;;;;;1.48;1.10;;;22.20;99.90;;;;;;4996287;28;20072;-53
2023/08/01 10:55:49;;;;;;;2.65;1.80;;;22.10;99.90;;;;;;5013376;28;20431;-50
2023/08/01 10:58:15;;;;;;;1.38;1.15;;;22.10;99.90;;;;;;5012702;28;20084;-53
2023/08/01 11:00:44;;;;;;;2.22;1.20;;;22.20;99.90;;;;;;5006662;28;20403;-53
2023/08/01 11:03:09;;;;;;;3.80;1.10;;;22.30;99.90;;;;;;5014161;28;20026;-52
2023/08/01 11:05:35;;;;;;;1.40;0.88;;;22.40;99.90;;;;;;5012392;28;20041;-52
2023/08/01 11:08:03;;;;;;;1.90;0.98;;;22.50;99.90;;;;;;5013319;28;20502;-58
2023/08/01 11:10:30;;;;;;;1.20;1.08;;;22.50;99.90;;;;;;5013011;28;20091;-55
2023/08/01 11:12:56;;;;;;;1.45;1.25;;;22.60;99.90;;;;;;5013674;28;20397;-50
2023/08/01 11:15:22;;;;;;;1.30;1.20;;;22.70;99.90;;;;;;5013238;28;20069;-46
2023/08/01 11:17:50;;;;;;;2.92;1.40;;;22.70;99.90;;;;;;5013022;28;20429;-46
2023/08/01 11:20:17;;;;;;;5.50;1.60;;;22.60;99.90;;;;;;5012584;28;20524;-48
2023/08/01 11:23:04;;;;;;;2.40;1.17;;;22.60;99.90;;;;;;5013076;28;20547;-49
2023/08/01 11:25:34;;;;;;;3.40;1.55;;;22.50;99.90;;;;;;5013422;28;20052;-47
2023/08/01 11:28:08;;;;;;;2.75;1.48;;;22.50;99.90;;;;;;4995668;28;20025;-46
2023/08/01 11:30:34;;;;;;;2.13;1.60;;;22.50;99.90;;;;;;5013528;28;20107;-50
2023/08/01 11:33:02;;;;;;;2.30;1.60;;;22.50;99.90;;;;;;5013875;28;20038;-49
2023/08/01 11:35:28;;;;;;;1.67;1.00;;;22.40;99.90;;;;;;5014464;28;20442;-49
2023/08/01 11:37:54;;;;;;;5.30;1.20;;;22.40;99.90;;;;;;4997164;28;20153;-48
2023/08/01 11:40:20;;;;;;;2.95;1.10;;;22.40;99.90;;;;;;5013870;28;20033;-49
2023/08/01 11:42:51;;;;;;;1.98;1.20;;;22.30;99.90;;;;;;5014154;28;20030;-50
2023/08/01 11:45:17;;;;;;;2.60;1.20;;;22.30;99.90;;;;;;5012992;28;20030;-49
2023/08/01 11:47:47;;;;;;;3.25;1.52;;;22.30;99.90;;;;;;4995258;28;20033;-48
2023/08/01 11:50:12;;;;;;;4.88;1.27;;;22.20;99.90;;;;;;5012680;28;20030;-50
2023/08/01 11:52:38;;;;;;;2.75;1.10;;;22.20;99.90;;;;;;5013016;28;20029;-54
2023/08/01 11:55:04;;;;;;;4.97;1.40;;;22.20;99.90;;;;;;5012889;28;20102;-47
2023/08/01 11:57:29;;;;;;;5.55;1.23;;;22.30;99.90;;;;;;4995098;28;20401;-50
2023/08/01 11:59:56;;;;;;;1.15;0.90;;;22.30;99.90;;;;;;5012187;28;20076;-49
2023/08/01 12:02:26;;;;;;;1.65;0.90;;;22.40;99.90;;;;;;4995086;28;20454;-50
2023/08/01 12:04:53;;;;;;;2.33;1.30;;;22.40;99.90;;;;;;5012646;28;20065;-50
2023/08/01 12:07:19;;;;;;;2.15;1.10;;;22.40;99.90;;;;;;5012591;28;20030;-49
2023/08/01 12:09:58;;;;;;;4.53;2.13;;;22.60;99.90;;;;;;5012342;28;20025;-50
2023/08/01 12:12:26;;;;;;;2.63;1.38;;;22.70;99.90;;;;;;5012404;28;20022;-47
2023/08/01 12:14:52;;;;;;;1.40;1.30;;;23.00;99.90;;;;;;5012647;28;20022;-52
2023/08/01 12:17:18;;;;;;;2.15;1.35;;;23.20;99.90;;;;;;5012126;28;20022;-50
2023/08/01 12:19:44;;;;;;;2.78;1.30;;;23.30;99.90;;;;;;5012533;28;20205;-51
2023/08/01 12:22:09;;;;;;;1.90;1.75;;;23.50;99.90;;;;;;5012474;28;20389;-51
2023/08/01 12:24:37;;;;;;;1.50;1.10;;;23.40;99.70;;;;;;5012324;28;20494;-52
2023/08/01 12:27:05;;;;;;;2.72;1.23;;;23.30;99.90;;;;;;4994331;28;20056;-48
2023/08/01 12:29:30;;;;;;;1.60;0.93;;;23.30;99.90;;;;;;5012190;28;20491;-50
2023/08/01 12:31:56;;;;;;;1.88;1.40;;;23.40;99.90;;;;;;5012673;28;20030;-49
2023/08/01 12:34:21;;;;;;;0.95;0.90;;;23.30;99.90;;;;;;5041820;22;20053;-48
2023/08/01 12:36:47;;;;;;;2.80;1.27;;;23.30;99.90;;;;;;5032964;28;20029;-46
2023/08/01 12:39:12;;;;;;;4.43;1.30;;;23.30;99.90;;;;;;5031791;28;20067;-46
2023/08/01 12:41:39;;;;;;;2.60;1.35;;;23.30;99.90;;;;;;5031851;28;20034;-50